sensor_id;sensor_type;location;lat;lon;timestamp;temperature;humidity
61145;DHT22;47026;51.208;3.288;2022-12-16T00:01:15;1.00;99.90
61145;DHT22;47026;51.208;3.288;2022-12-16T00:03:45;1.00;99.90
61145;DHT22;47026;51.208;3.288;2022-12-16T00:06:11;1.00;99.90
61145;DHT22;47026;51.208;3.288;2022-12-16T00:08:37;1.00;99.90
61145;DHT22;47026;51.208;3.288;2022-12-16T00:11:05;0.90;99.90
61145;DHT22;47026;51.208;3.288;2022-12-16T00:13:32;0.90;99.90
61145;DHT22;47026;51.208;3.288;2022-12-16T00:15:59;0.90;99.90
61145;DHT22;47026;51.208;3.288;2022-12-16T00:18:28;0.90;99.90
61145;DHT22;47026;51.208;3.288;2022-12-16T00:20:54;1.00;99.90
61145;DHT22;47026;51.208;3.288;2022-12-16T00:23:20;1.00;99.90
61145;DHT22;47026;51.208;3.288;2022-12-16T00:25:47;1.00;99.90
61145;DHT22;47026;51.208;3.288;2022-12-16T00:28:14;1.00;99.90
61145;DHT22;47026;51.208;3.288;2022-12-16T00:30:41;1.00;99.90
61145;DHT22;47026;51.208;3.288;2022-12-16T00:33:08;1.10;99.90
61145;DHT22;47026;51.208;3.288;2022-12-16T00:35:34;1.00;99.90
61145;DHT22;47026;51.208;3.288;2022-12-16T00:37:59;1.00;99.90
61145;DHT22;47026;51.208;3.288;2022-12-16T00:40:26;1.00;99.90
61145;DHT22;47026;51.208;3.288;2022-12-16T00:42:52;0.90;99.90
61145;DHT22;47026;51.208;3.288;2022-12-16T00:45:18;0.90;99.90
61145;DHT22;47026;51.208;3.288;2022-12-16T00:47:44;0.90;99.90
61145;DHT22;47026;51.208;3.288;2022-12-16T00:50:10;1.00;99.90
61145;DHT22;47026;51.208;3.288;2022-12-16T00:52:36;1.00;99.90
61145;DHT22;47026;51.208;3.288;2022-12-16T00:55:02;1.00;99.90
61145;DHT22;47026;51.208;3.288;2022-12-16T00:57:27;1.00;99.90
61145;DHT22;47026;51.208;3.288;2022-12-16T00:59:53;1.10;99.90
61145;DHT22;47026;51.208;3.288;2022-12-16T01:02:19;1.10;99.90
61145;DHT22;47026;51.208;3.288;2022-12-16T01:04:51;1.10;99.90
61145;DHT22;47026;51.208;3.288;2022-12-16T01:07:18;1.00;99.90
61145;DHT22;47026;51.208;3.288;2022-12-16T01:09:43;1.10;99.90
61145;DHT22;47026;51.208;3.288;2022-12-16T01:12:09;1.20;99.90
61145;DHT22;47026;51.208;3.288;2022-12-16T01:14:36;1.10;99.90
61145;DHT22;47026;51.208;3.288;2022-12-16T01:17:01;1.20;99.90
61145;DHT22;47026;51.208;3.288;2022-12-16T01:19:27;1.10;99.90
61145;DHT22;47026;51.208;3.288;2022-12-16T01:21:53;1.20;99.90
61145;DHT22;47026;51.208;3.288;2022-12-16T01:24:19;1.20;99.90
61145;DHT22;47026;51.208;3.288;2022-12-16T01:26:45;1.10;99.90
61145;DHT22;47026;51.208;3.288;2022-12-16T01:29:11;1.10;99.90
61145;DHT22;47026;51.208;3.288;2022-12-16T01:31:36;1.10;99.90
61145;DHT22;47026;51.208;3.288;2022-12-16T01:34:03;1.10;99.90
61145;DHT22;47026;51.208;3.288;2022-12-16T01:36:28;1.10;99.90
61145;DHT22;47026;51.208;3.288;2022-12-16T01:38:54;1.10;99.90
61145;DHT22;47026;51.208;3.288;2022-12-16T01:41:20;1.00;99.90
61145;DHT22;47026;51.208;3.288;2022-12-16T01:43:46;0.90;99.90
61145;DHT22;47026;51.208;3.288;2022-12-16T01:48:43;0.90;99.90
61145;DHT22;47026;51.208;3.288;2022-12-16T01:51:25;0.80;99.90
61145;DHT22;47026;51.208;3.288;2022-12-16T01:54:05;0.80;99.90
61145;DHT22;47026;51.208;3.288;2022-12-16T01:56:34;0.80;99.90
61145;DHT22;47026;51.208;3.288;2022-12-16T01:59:02;0.80;99.90
61145;DHT22;47026;51.208;3.288;2022-12-16T02:01:28;0.80;99.90
61145;DHT22;47026;51.208;3.288;2022-12-16T02:03:54;0.80;99.90
61145;DHT22;47026;51.208;3.288;2022-12-16T02:06:22;1.00;99.90
61145;DHT22;47026;51.208;3.288;2022-12-16T02:08:51;1.00;99.90
61145;DHT22;47026;51.208;3.288;2022-12-16T02:39:24;0.90;99.90
61145;DHT22;47026;51.208;3.288;2022-12-16T02:42:18;0.80;99.90
61145;DHT22;47026;51.208;3.288;2022-12-16T02:47:20;0.70;99.90
61145;DHT22;47026;51.208;3.288;2022-12-16T02:49:47;0.80;99.90
61145;DHT22;47026;51.208;3.288;2022-12-16T02:52:13;0.80;99.90
61145;DHT22;47026;51.208;3.288;2022-12-16T02:54:40;0.70;99.90
61145;DHT22;47026;51.208;3.288;2022-12-16T02:59:58;0.70;99.90
61145;DHT22;47026;51.208;3.288;2022-12-16T03:07:53;0.80;99.90
61145;DHT22;47026;51.208;3.288;2022-12-16T03:10:26;0.90;99.90
61145;DHT22;47026;51.208;3.288;2022-12-16T03:12:53;0.80;99.90
61145;DHT22;47026;51.208;3.288;2022-12-16T03:15:22;0.80;99.90
61145;DHT22;47026;51.208;3.288;2022-12-16T03:17:52;0.70;99.90
61145;DHT22;47026;51.208;3.288;2022-12-16T03:20:30;0.70;99.90
61145;DHT22;47026;51.208;3.288;2022-12-16T03:23:01;0.70;99.90
61145;DHT22;47026;51.208;3.288;2022-12-16T03:25:29;0.60;99.90
61145;DHT22;47026;51.208;3.288;2022-12-16T03:28:10;0.60;99.90
61145;DHT22;47026;51.208;3.288;2022-12-16T03:30:43;0.70;99.90
61145;DHT22;47026;51.208;3.288;2022-12-16T03:33:37;0.60;99.90
61145;DHT22;47026;51.208;3.288;2022-12-16T03:36:15;0.70;99.90
61145;DHT22;47026;51.208;3.288;2022-12-16T03:38:43;0.70;99.90
61145;DHT22;47026;51.208;3.288;2022-12-16T03:41:13;0.70;99.90
61145;DHT22;47026;51.208;3.288;2022-12-16T03:43:39;0.70;99.90
61145;DHT22;47026;51.208;3.288;2022-12-16T03:46:05;0.70;99.90
61145;DHT22;47026;51.208;3.288;2022-12-16T03:48:33;0.80;99.90
61145;DHT22;47026;51.208;3.288;2022-12-16T03:50:59;0.80;99.90
61145;DHT22;47026;51.208;3.288;2022-12-16T03:53:25;0.70;99.90
61145;DHT22;47026;51.208;3.288;2022-12-16T03:55:54;0.70;99.90
61145;DHT22;47026;51.208;3.288;2022-12-16T03:58:20;0.70;99.90
61145;DHT22;47026;51.208;3.288;2022-12-16T04:00:46;0.70;99.90
61145;DHT22;47026;51.208;3.288;2022-12-16T04:03:12;0.70;99.90
61145;DHT22;47026;51.208;3.288;2022-12-16T04:05:38;0.60;99.90
61145;DHT22;47026;51.208;3.288;2022-12-16T04:08:04;0.60;99.90
61145;DHT22;47026;51.208;3.288;2022-12-16T04:10:31;0.50;99.90
61145;DHT22;47026;51.208;3.288;2022-12-16T04:13:15;0.50;99.90
61145;DHT22;47026;51.208;3.288;2022-12-16T04:15:59;0.50;99.90
61145;DHT22;47026;51.208;3.288;2022-12-16T04:18:44;0.50;99.90
61145;DHT22;47026;51.208;3.288;2022-12-16T04:21:30;0.50;99.90
61145;DHT22;47026;51.208;3.288;2022-12-16T04:24:16;0.60;99.90
61145;DHT22;47026;51.208;3.288;2022-12-16T04:26:46;0.60;99.90
61145;DHT22;47026;51.208;3.288;2022-12-16T04:29:31;0.60;99.90
61145;DHT22;47026;51.208;3.288;2022-12-16T04:31:58;0.60;99.90
61145;DHT22;47026;51.208;3.288;2022-12-16T04:34:24;0.70;99.90
61145;DHT22;47026;51.208;3.288;2022-12-16T04:37:00;0.70;99.90
61145;DHT22;47026;51.208;3.288;2022-12-16T04:39:45;0.70;99.90
61145;DHT22;47026;51.208;3.288;2022-12-16T04:42:29;0.70;99.90
61145;DHT22;47026;51.208;3.288;2022-12-16T04:45:14;0.70;99.90
61145;DHT22;47026;51.208;3.288;2022-12-16T04:47:59;0.70;99.90
61145;DHT22;47026;51.208;3.288;2022-12-16T04:50:44;0.80;99.90
61145;DHT22;47026;51.208;3.288;2022-12-16T04:53:29;1.00;99.90
61145;DHT22;47026;51.208;3.288;2022-12-16T04:56:13;0.90;99.90
61145;DHT22;47026;51.208;3.288;2022-12-16T04:58:58;0.90;99.90
61145;DHT22;47026;51.208;3.288;2022-12-16T05:01:43;0.90;99.90
61145;DHT22;47026;51.208;3.288;2022-12-16T05:04:27;1.00;99.90
61145;DHT22;47026;51.208;3.288;2022-12-16T05:07:11;1.10;99.90
61145;DHT22;47026;51.208;3.288;2022-12-16T05:09:56;1.10;99.90
61145;DHT22;47026;51.208;3.288;2022-12-16T05:12:40;1.10;99.90
61145;DHT22;47026;51.208;3.288;2022-12-16T05:15:24;1.00;99.90
61145;DHT22;47026;51.208;3.288;2022-12-16T05:18:13;1.00;99.90
61145;DHT22;47026;51.208;3.288;2022-12-16T05:20:59;1.00;99.90
61145;DHT22;47026;51.208;3.288;2022-12-16T05:23:44;0.90;99.90
61145;DHT22;47026;51.208;3.288;2022-12-16T05:26:29;1.00;99.90
61145;DHT22;47026;51.208;3.288;2022-12-16T05:29:14;1.00;99.90
61145;DHT22;47026;51.208;3.288;2022-12-16T05:31:58;0.90;99.90
61145;DHT22;47026;51.208;3.288;2022-12-16T05:34:43;0.90;99.90
61145;DHT22;47026;51.208;3.288;2022-12-16T05:37:27;0.80;99.90
61145;DHT22;47026;51.208;3.288;2022-12-16T05:40:11;0.80;99.90
61145;DHT22;47026;51.208;3.288;2022-12-16T05:42:56;0.80;99.90
61145;DHT22;47026;51.208;3.288;2022-12-16T05:45:40;0.80;99.90
61145;DHT22;47026;51.208;3.288;2022-12-16T05:48:26;0.70;99.90
61145;DHT22;47026;51.208;3.288;2022-12-16T05:51:10;0.70;99.90
61145;DHT22;47026;51.208;3.288;2022-12-16T05:53:55;0.70;99.90
61145;DHT22;47026;51.208;3.288;2022-12-16T05:56:39;0.70;99.90
61145;DHT22;47026;51.208;3.288;2022-12-16T05:59:24;0.70;99.90
61145;DHT22;47026;51.208;3.288;2022-12-16T06:02:08;0.80;99.90
61145;DHT22;47026;51.208;3.288;2022-12-16T06:04:52;0.90;99.90
61145;DHT22;47026;51.208;3.288;2022-12-16T06:07:36;1.00;99.90
61145;DHT22;47026;51.208;3.288;2022-12-16T06:10:21;1.10;99.90
61145;DHT22;47026;51.208;3.288;2022-12-16T06:13:05;1.00;99.90
61145;DHT22;47026;51.208;3.288;2022-12-16T06:15:49;1.10;99.90
61145;DHT22;47026;51.208;3.288;2022-12-16T06:18:34;1.00;99.90
61145;DHT22;47026;51.208;3.288;2022-12-16T06:21:18;0.90;99.90
61145;DHT22;47026;51.208;3.288;2022-12-16T06:24:03;0.80;99.90
61145;DHT22;47026;51.208;3.288;2022-12-16T06:26:47;0.90;99.90
61145;DHT22;47026;51.208;3.288;2022-12-16T06:29:32;0.90;99.90
61145;DHT22;47026;51.208;3.288;2022-12-16T06:32:16;0.80;99.90
61145;DHT22;47026;51.208;3.288;2022-12-16T06:35:01;1.10;99.90
61145;DHT22;47026;51.208;3.288;2022-12-16T06:37:48;1.30;99.90
61145;DHT22;47026;51.208;3.288;2022-12-16T06:40:33;1.20;99.90
61145;DHT22;47026;51.208;3.288;2022-12-16T06:43:17;1.30;99.90
61145;DHT22;47026;51.208;3.288;2022-12-16T06:46:01;1.30;99.90
61145;DHT22;47026;51.208;3.288;2022-12-16T06:48:46;1.30;99.90
61145;DHT22;47026;51.208;3.288;2022-12-16T06:51:30;1.30;99.90
61145;DHT22;47026;51.208;3.288;2022-12-16T06:54:14;1.30;99.90
61145;DHT22;47026;51.208;3.288;2022-12-16T06:56:58;1.40;99.90
61145;DHT22;47026;51.208;3.288;2022-12-16T06:59:43;1.50;99.90
61145;DHT22;47026;51.208;3.288;2022-12-16T07:02:27;1.60;99.90
61145;DHT22;47026;51.208;3.288;2022-12-16T07:05:11;1.60;99.90
61145;DHT22;47026;51.208;3.288;2022-12-16T07:07:55;1.60;99.90
61145;DHT22;47026;51.208;3.288;2022-12-16T07:10:40;1.60;99.90
61145;DHT22;47026;51.208;3.288;2022-12-16T07:13:24;1.40;99.90
61145;DHT22;47026;51.208;3.288;2022-12-16T07:16:08;1.30;99.90
61145;DHT22;47026;51.208;3.288;2022-12-16T07:18:53;1.20;99.90
61145;DHT22;47026;51.208;3.288;2022-12-16T07:21:37;1.20;99.90
61145;DHT22;47026;51.208;3.288;2022-12-16T07:24:21;1.10;99.90
61145;DHT22;47026;51.208;3.288;2022-12-16T07:27:05;1.00;99.90
61145;DHT22;47026;51.208;3.288;2022-12-16T07:29:50;0.90;99.90
61145;DHT22;47026;51.208;3.288;2022-12-16T07:32:34;1.00;99.90
61145;DHT22;47026;51.208;3.288;2022-12-16T07:35:18;0.90;99.90
61145;DHT22;47026;51.208;3.288;2022-12-16T07:38:02;1.00;99.90
61145;DHT22;47026;51.208;3.288;2022-12-16T07:40:47;0.90;99.90
61145;DHT22;47026;51.208;3.288;2022-12-16T07:43:31;0.90;99.90
61145;DHT22;47026;51.208;3.288;2022-12-16T07:46:15;1.00;99.90
61145;DHT22;47026;51.208;3.288;2022-12-16T07:49:00;0.80;99.90
61145;DHT22;47026;51.208;3.288;2022-12-16T07:51:44;0.80;99.90
61145;DHT22;47026;51.208;3.288;2022-12-16T07:54:28;0.70;99.90
61145;DHT22;47026;51.208;3.288;2022-12-16T07:57:12;0.60;99.90
61145;DHT22;47026;51.208;3.288;2022-12-16T07:59:56;0.60;99.90
61145;DHT22;47026;51.208;3.288;2022-12-16T08:02:40;0.70;99.90
61145;DHT22;47026;51.208;3.288;2022-12-16T08:05:25;0.60;99.90
61145;DHT22;47026;51.208;3.288;2022-12-16T08:08:09;0.70;99.90
61145;DHT22;47026;51.208;3.288;2022-12-16T08:10:53;0.70;99.90
61145;DHT22;47026;51.208;3.288;2022-12-16T08:13:45;0.70;99.90
61145;DHT22;47026;51.208;3.288;2022-12-16T08:16:29;0.70;99.90
61145;DHT22;47026;51.208;3.288;2022-12-16T08:19:14;0.80;99.90
61145;DHT22;47026;51.208;3.288;2022-12-16T08:21:58;1.20;99.90
61145;DHT22;47026;51.208;3.288;2022-12-16T08:24:42;1.90;99.90
61145;DHT22;47026;51.208;3.288;2022-12-16T08:27:26;2.60;99.90
61145;DHT22;47026;51.208;3.288;2022-12-16T08:30:11;3.30;99.90
61145;DHT22;47026;51.208;3.288;2022-12-16T08:32:55;4.10;99.90
61145;DHT22;47026;51.208;3.288;2022-12-16T08:35:39;4.80;99.90
61145;DHT22;47026;51.208;3.288;2022-12-16T08:38:23;5.50;99.90
61145;DHT22;47026;51.208;3.288;2022-12-16T08:41:08;6.30;99.90
61145;DHT22;47026;51.208;3.288;2022-12-16T08:43:52;7.10;99.90
61145;DHT22;47026;51.208;3.288;2022-12-16T08:46:36;7.70;99.90
61145;DHT22;47026;51.208;3.288;2022-12-16T08:49:20;7.90;99.90
61145;DHT22;47026;51.208;3.288;2022-12-16T08:52:05;8.60;99.90
61145;DHT22;47026;51.208;3.288;2022-12-16T08:54:49;9.30;99.90
61145;DHT22;47026;51.208;3.288;2022-12-16T08:57:33;10.00;99.90
61145;DHT22;47026;51.208;3.288;2022-12-16T09:00:18;10.70;99.90
61145;DHT22;47026;51.208;3.288;2022-12-16T09:03:02;11.40;99.90
61145;DHT22;47026;51.208;3.288;2022-12-16T09:05:47;11.80;99.90
61145;DHT22;47026;51.208;3.288;2022-12-16T09:08:31;11.90;99.90
61145;DHT22;47026;51.208;3.288;2022-12-16T09:11:15;12.10;99.90
61145;DHT22;47026;51.208;3.288;2022-12-16T09:14:00;12.00;99.90
61145;DHT22;47026;51.208;3.288;2022-12-16T09:16:44;11.90;99.90
61145;DHT22;47026;51.208;3.288;2022-12-16T09:19:28;12.10;99.90
61145;DHT22;47026;51.208;3.288;2022-12-16T09:22:12;11.70;99.90
61145;DHT22;47026;51.208;3.288;2022-12-16T09:24:57;12.00;99.90
61145;DHT22;47026;51.208;3.288;2022-12-16T09:27:41;12.40;99.90
61145;DHT22;47026;51.208;3.288;2022-12-16T09:30:25;12.40;99.90
61145;DHT22;47026;51.208;3.288;2022-12-16T09:33:10;12.50;99.90
61145;DHT22;47026;51.208;3.288;2022-12-16T09:35:54;12.20;99.90
61145;DHT22;47026;51.208;3.288;2022-12-16T09:38:39;12.00;99.90
61145;DHT22;47026;51.208;3.288;2022-12-16T09:44:33;12.70;99.90
61145;DHT22;47026;51.208;3.288;2022-12-16T09:50:25;13.10;99.90
61145;DHT22;47026;51.208;3.288;2022-12-16T09:53:12;13.50;99.90
61145;DHT22;47026;51.208;3.288;2022-12-16T09:56:00;14.00;99.90
61145;DHT22;47026;51.208;3.288;2022-12-16T09:58:52;14.10;99.90
61145;DHT22;47026;51.208;3.288;2022-12-16T10:01:37;14.30;99.90
61145;DHT22;47026;51.208;3.288;2022-12-16T10:04:23;14.40;99.90
61145;DHT22;47026;51.208;3.288;2022-12-16T10:07:20;14.20;99.90
61145;DHT22;47026;51.208;3.288;2022-12-16T10:16:27;11.70;99.90
61145;DHT22;47026;51.208;3.288;2022-12-16T10:22:41;10.90;99.90
61145;DHT22;47026;51.208;3.288;2022-12-16T10:25:57;10.50;99.90
61145;DHT22;47026;51.208;3.288;2022-12-16T10:28:46;10.10;99.90
61145;DHT22;47026;51.208;3.288;2022-12-16T10:31:47;9.50;99.90
61145;DHT22;47026;51.208;3.288;2022-12-16T10:34:34;9.20;99.90
61145;DHT22;47026;51.208;3.288;2022-12-16T10:40:14;9.50;99.90
61145;DHT22;47026;51.208;3.288;2022-12-16T10:43:05;10.00;99.90
61145;DHT22;47026;51.208;3.288;2022-12-16T10:45:56;10.50;99.90
61145;DHT22;47026;51.208;3.288;2022-12-16T10:48:41;10.60;99.90
61145;DHT22;47026;51.208;3.288;2022-12-16T10:51:27;11.10;99.90
61145;DHT22;47026;51.208;3.288;2022-12-16T10:54:32;11.90;99.90
61145;DHT22;47026;51.208;3.288;2022-12-16T11:03:30;11.30;99.90
61145;DHT22;47026;51.208;3.288;2022-12-16T11:06:15;10.40;99.90
61145;DHT22;47026;51.208;3.288;2022-12-16T11:09:36;10.90;99.90
61145;DHT22;47026;51.208;3.288;2022-12-16T11:12:29;11.70;99.90
61145;DHT22;47026;51.208;3.288;2022-12-16T11:18:13;12.10;99.90
61145;DHT22;47026;51.208;3.288;2022-12-16T11:27:00;12.00;99.90
61145;DHT22;47026;51.208;3.288;2022-12-16T11:29:55;12.50;99.90
61145;DHT22;47026;51.208;3.288;2022-12-16T11:32:50;12.80;99.90
61145;DHT22;47026;51.208;3.288;2022-12-16T11:36:03;13.20;99.90
61145;DHT22;47026;51.208;3.288;2022-12-16T11:38:45;13.20;99.90
61145;DHT22;47026;51.208;3.288;2022-12-16T11:41:51;13.20;99.90
61145;DHT22;47026;51.208;3.288;2022-12-16T11:44:42;13.00;99.90
61145;DHT22;47026;51.208;3.288;2022-12-16T11:47:45;14.00;99.90
61145;DHT22;47026;51.208;3.288;2022-12-16T11:50:33;14.60;99.90
61145;DHT22;47026;51.208;3.288;2022-12-16T11:56:44;14.10;99.90
61145;DHT22;47026;51.208;3.288;2022-12-16T11:59:39;12.80;99.90
61145;DHT22;47026;51.208;3.288;2022-12-16T12:03:08;13.00;99.90
61145;DHT22;47026;51.208;3.288;2022-12-16T12:09:12;13.20;99.90
61145;DHT22;47026;51.208;3.288;2022-12-16T12:12:42;13.80;99.90
61145;DHT22;47026;51.208;3.288;2022-12-16T12:21:38;15.70;99.90
61145;DHT22;47026;51.208;3.288;2022-12-16T12:30:06;11.40;99.90
61145;DHT22;47026;51.208;3.288;2022-12-16T12:36:40;11.70;99.90
61145;DHT22;47026;51.208;3.288;2022-12-16T12:42:45;11.10;99.90
61145;DHT22;47026;51.208;3.288;2022-12-16T12:57:37;12.10;99.90
61145;DHT22;47026;51.208;3.288;2022-12-16T13:00:24;12.00;99.90
61145;DHT22;47026;51.208;3.288;2022-12-16T13:06:13;11.30;99.90
61145;DHT22;47026;51.208;3.288;2022-12-16T13:08:59;11.00;99.90
61145;DHT22;47026;51.208;3.288;2022-12-16T13:12:33;10.20;99.90
61145;DHT22;47026;51.208;3.288;2022-12-16T13:15:36;9.60;99.90
61145;DHT22;47026;51.208;3.288;2022-12-16T13:18:23;9.40;99.90
61145;DHT22;47026;51.208;3.288;2022-12-16T13:24:41;9.30;99.90
61145;DHT22;47026;51.208;3.288;2022-12-16T13:27:27;9.40;99.90
61145;DHT22;47026;51.208;3.288;2022-12-16T13:33:00;9.00;99.90
61145;DHT22;47026;51.208;3.288;2022-12-16T13:35:57;8.80;99.90
61145;DHT22;47026;51.208;3.288;2022-12-16T13:38:50;8.50;99.90
61145;DHT22;47026;51.208;3.288;2022-12-16T13:50:36;8.70;99.90
61145;DHT22;47026;51.208;3.288;2022-12-16T13:53:24;8.60;99.90
61145;DHT22;47026;51.208;3.288;2022-12-16T13:56:14;8.50;99.90
61145;DHT22;47026;51.208;3.288;2022-12-16T13:59:05;8.60;99.90
61145;DHT22;47026;51.208;3.288;2022-12-16T14:01:56;8.40;99.90
61145;DHT22;47026;51.208;3.288;2022-12-16T14:04:48;8.40;99.90
61145;DHT22;47026;51.208;3.288;2022-12-16T14:07:36;8.60;99.90
61145;DHT22;47026;51.208;3.288;2022-12-16T14:10:35;8.50;99.90
61145;DHT22;47026;51.208;3.288;2022-12-16T14:16:54;9.10;99.90
61145;DHT22;47026;51.208;3.288;2022-12-16T14:25:55;10.70;99.90
61145;DHT22;47026;51.208;3.288;2022-12-16T14:28:41;11.80;99.90
61145;DHT22;47026;51.208;3.288;2022-12-16T14:31:37;12.50;99.90
61145;DHT22;47026;51.208;3.288;2022-12-16T14:34:31;12.70;99.90
61145;DHT22;47026;51.208;3.288;2022-12-16T14:37:18;12.50;99.90
61145;DHT22;47026;51.208;3.288;2022-12-16T14:40:17;12.10;99.90
61145;DHT22;47026;51.208;3.288;2022-12-16T14:43:02;12.00;99.90
61145;DHT22;47026;51.208;3.288;2022-12-16T14:45:48;11.50;99.90
61145;DHT22;47026;51.208;3.288;2022-12-16T14:48:35;10.80;99.90
61145;DHT22;47026;51.208;3.288;2022-12-16T14:51:29;10.10;99.90
61145;DHT22;47026;51.208;3.288;2022-12-16T14:54:25;9.70;99.90
61145;DHT22;47026;51.208;3.288;2022-12-16T14:57:16;9.30;99.90
61145;DHT22;47026;51.208;3.288;2022-12-16T15:00:15;8.40;99.90
61145;DHT22;47026;51.208;3.288;2022-12-16T15:05:45;7.90;99.90
61145;DHT22;47026;51.208;3.288;2022-12-16T15:08:32;7.60;99.90
61145;DHT22;47026;51.208;3.288;2022-12-16T15:11:19;7.30;99.90
61145;DHT22;47026;51.208;3.288;2022-12-16T15:14:05;7.10;99.90
61145;DHT22;47026;51.208;3.288;2022-12-16T15:16:51;6.60;99.90
61145;DHT22;47026;51.208;3.288;2022-12-16T15:19:43;6.50;99.90
61145;DHT22;47026;51.208;3.288;2022-12-16T15:22:28;6.40;99.90
61145;DHT22;47026;51.208;3.288;2022-12-16T15:25:22;6.10;99.90
61145;DHT22;47026;51.208;3.288;2022-12-16T15:28:25;6.20;99.90
61145;DHT22;47026;51.208;3.288;2022-12-16T15:31:20;6.10;99.90
61145;DHT22;47026;51.208;3.288;2022-12-16T15:37:03;5.80;99.90
61145;DHT22;47026;51.208;3.288;2022-12-16T15:39:47;5.50;99.90
61145;DHT22;47026;51.208;3.288;2022-12-16T15:42:32;5.30;99.90
61145;DHT22;47026;51.208;3.288;2022-12-16T15:45:26;5.10;99.90
61145;DHT22;47026;51.208;3.288;2022-12-16T15:52:01;4.80;99.90
61145;DHT22;47026;51.208;3.288;2022-12-16T15:54:26;4.80;99.90
61145;DHT22;47026;51.208;3.288;2022-12-16T15:57:28;4.80;99.90
61145;DHT22;47026;51.208;3.288;2022-12-16T16:00:26;4.70;99.90
61145;DHT22;47026;51.208;3.288;2022-12-16T16:06:00;4.60;99.90
61145;DHT22;47026;51.208;3.288;2022-12-16T16:08:49;4.60;99.90
61145;DHT22;47026;51.208;3.288;2022-12-16T16:11:34;4.40;99.90
61145;DHT22;47026;51.208;3.288;2022-12-16T16:14:18;4.20;99.90
61145;DHT22;47026;51.208;3.288;2022-12-16T16:17:07;4.10;99.90
61145;DHT22;47026;51.208;3.288;2022-12-16T16:19:53;4.00;99.90
61145;DHT22;47026;51.208;3.288;2022-12-16T16:22:37;3.80;99.90
61145;DHT22;47026;51.208;3.288;2022-12-16T16:25:21;3.80;99.90
61145;DHT22;47026;51.208;3.288;2022-12-16T16:28:07;3.80;99.90
61145;DHT22;47026;51.208;3.288;2022-12-16T16:30:52;3.60;99.90
61145;DHT22;47026;51.208;3.288;2022-12-16T16:33:36;3.60;99.90
61145;DHT22;47026;51.208;3.288;2022-12-16T16:36:21;3.40;99.90
61145;DHT22;47026;51.208;3.288;2022-12-16T16:39:05;3.40;99.90
61145;DHT22;47026;51.208;3.288;2022-12-16T16:41:49;3.30;99.90
61145;DHT22;47026;51.208;3.288;2022-12-16T16:44:33;3.20;99.90
61145;DHT22;47026;51.208;3.288;2022-12-16T16:47:17;3.20;99.90
61145;DHT22;47026;51.208;3.288;2022-12-16T16:50:02;3.10;99.90
61145;DHT22;47026;51.208;3.288;2022-12-16T16:52:46;3.00;99.90
61145;DHT22;47026;51.208;3.288;2022-12-16T16:55:30;2.90;99.90
61145;DHT22;47026;51.208;3.288;2022-12-16T16:58:25;2.70;99.90
61145;DHT22;47026;51.208;3.288;2022-12-16T17:01:15;2.70;99.90
61145;DHT22;47026;51.208;3.288;2022-12-16T17:04:00;2.70;99.90
61145;DHT22;47026;51.208;3.288;2022-12-16T17:06:45;2.60;99.90
61145;DHT22;47026;51.208;3.288;2022-12-16T17:09:29;2.60;99.90
61145;DHT22;47026;51.208;3.288;2022-12-16T17:12:22;2.50;99.90
61145;DHT22;47026;51.208;3.288;2022-12-16T17:15:22;2.50;99.90
61145;DHT22;47026;51.208;3.288;2022-12-16T17:18:11;2.60;99.90
61145;DHT22;47026;51.208;3.288;2022-12-16T17:20:55;2.50;99.90
61145;DHT22;47026;51.208;3.288;2022-12-16T17:23:39;2.40;99.90
61145;DHT22;47026;51.208;3.288;2022-12-16T17:26:24;2.30;99.90
61145;DHT22;47026;51.208;3.288;2022-12-16T17:29:17;2.20;99.90
61145;DHT22;47026;51.208;3.288;2022-12-16T17:32:01;2.20;99.90
61145;DHT22;47026;51.208;3.288;2022-12-16T17:34:45;2.10;99.90
61145;DHT22;47026;51.208;3.288;2022-12-16T17:37:30;2.10;99.90
61145;DHT22;47026;51.208;3.288;2022-12-16T17:40:16;2.20;99.90
61145;DHT22;47026;51.208;3.288;2022-12-16T17:43:00;2.20;99.90
61145;DHT22;47026;51.208;3.288;2022-12-16T17:46:12;2.10;99.90
61145;DHT22;47026;51.208;3.288;2022-12-16T17:48:57;2.10;99.90
61145;DHT22;47026;51.208;3.288;2022-12-16T17:51:42;2.20;99.90
61145;DHT22;47026;51.208;3.288;2022-12-16T17:54:28;2.20;99.90
61145;DHT22;47026;51.208;3.288;2022-12-16T17:57:12;2.10;99.90
61145;DHT22;47026;51.208;3.288;2022-12-16T17:59:57;2.10;99.90
61145;DHT22;47026;51.208;3.288;2022-12-16T18:02:41;2.00;99.90
61145;DHT22;47026;51.208;3.288;2022-12-16T18:05:26;1.90;99.90
61145;DHT22;47026;51.208;3.288;2022-12-16T18:08:10;2.00;99.90
61145;DHT22;47026;51.208;3.288;2022-12-16T18:10:55;1.90;99.90
61145;DHT22;47026;51.208;3.288;2022-12-16T18:13:40;1.90;99.90
61145;DHT22;47026;51.208;3.288;2022-12-16T18:16:24;1.80;99.90
61145;DHT22;47026;51.208;3.288;2022-12-16T18:19:13;1.80;99.90
61145;DHT22;47026;51.208;3.288;2022-12-16T18:22:00;1.80;99.90
61145;DHT22;47026;51.208;3.288;2022-12-16T18:24:45;1.70;99.90
61145;DHT22;47026;51.208;3.288;2022-12-16T18:27:30;1.70;99.90
61145;DHT22;47026;51.208;3.288;2022-12-16T18:30:14;1.70;99.90
61145;DHT22;47026;51.208;3.288;2022-12-16T18:32:59;1.70;99.90
61145;DHT22;47026;51.208;3.288;2022-12-16T18:35:43;1.70;99.90
61145;DHT22;47026;51.208;3.288;2022-12-16T18:38:28;1.70;99.90
61145;DHT22;47026;51.208;3.288;2022-12-16T18:41:17;1.70;99.90
61145;DHT22;47026;51.208;3.288;2022-12-16T18:44:03;1.70;99.90
61145;DHT22;47026;51.208;3.288;2022-12-16T18:46:47;1.60;99.90
61145;DHT22;47026;51.208;3.288;2022-12-16T18:49:31;1.50;99.90
61145;DHT22;47026;51.208;3.288;2022-12-16T18:52:17;1.30;99.90
61145;DHT22;47026;51.208;3.288;2022-12-16T18:55:01;1.40;99.90
61145;DHT22;47026;51.208;3.288;2022-12-16T18:57:46;1.40;99.90
61145;DHT22;47026;51.208;3.288;2022-12-16T19:00:31;1.50;99.90
61145;DHT22;47026;51.208;3.288;2022-12-16T19:03:16;1.50;99.90
61145;DHT22;47026;51.208;3.288;2022-12-16T19:06:00;1.30;99.90
61145;DHT22;47026;51.208;3.288;2022-12-16T19:08:44;1.30;99.90
61145;DHT22;47026;51.208;3.288;2022-12-16T19:11:29;1.20;99.90
61145;DHT22;47026;51.208;3.288;2022-12-16T19:14:13;1.10;99.90
61145;DHT22;47026;51.208;3.288;2022-12-16T19:16:57;1.10;99.90
61145;DHT22;47026;51.208;3.288;2022-12-16T19:19:41;1.10;99.90
61145;DHT22;47026;51.208;3.288;2022-12-16T19:22:25;1.10;99.90
61145;DHT22;47026;51.208;3.288;2022-12-16T19:25:10;1.10;99.90
61145;DHT22;47026;51.208;3.288;2022-12-16T19:27:54;1.10;99.90
61145;DHT22;47026;51.208;3.288;2022-12-16T19:30:38;1.20;99.90
61145;DHT22;47026;51.208;3.288;2022-12-16T19:33:23;1.10;99.90
61145;DHT22;47026;51.208;3.288;2022-12-16T19:36:07;1.10;99.90
61145;DHT22;47026;51.208;3.288;2022-12-16T19:38:51;1.10;99.90
61145;DHT22;47026;51.208;3.288;2022-12-16T19:41:36;1.10;99.90
61145;DHT22;47026;51.208;3.288;2022-12-16T19:44:20;1.10;99.90
61145;DHT22;47026;51.208;3.288;2022-12-16T19:47:04;1.00;99.90
61145;DHT22;47026;51.208;3.288;2022-12-16T19:50:08;1.00;99.90
61145;DHT22;47026;51.208;3.288;2022-12-16T19:52:53;1.10;99.90
61145;DHT22;47026;51.208;3.288;2022-12-16T19:55:38;1.00;99.90